Anzac, Canada
Current Conditions -  °F | °C
As of 12:00 PM on Friday 21 Nov 2014 (Local Time) from CYMM Reporting Station
Overcast Overcast  
Wind Chill:   Ceiling: 2800
Heat Index: 21°   Visibility: 9mi
Dew Point: 14°   Wind: 13mph
Humidity: 74%   Direction: 10°N
Pressure: 29.64"   Gusts: NA
Location:  56.44°N, 111.06°W
Report Text: CYMM 211900Z AUTO 01011KT 9SM OVC028 M06/M10 A2964 RMK SLP062
Loading
Personal Weather Stations






























Interactive Weather Map New forecast layout! Learn more

10-Day Weather Forecast

Advertisements
Track Severe Weather on mobile